createdAt,value
2018-12-20T00:00:25.081Z,7.20
2018-12-20T00:02:55.714Z,7.20
2018-12-20T00:05:26.297Z,7.20
2018-12-20T00:07:56.914Z,7.20
2018-12-20T00:10:27.673Z,7.20
2018-12-20T00:12:58.131Z,7.20
2018-12-20T00:15:28.585Z,7.20
2018-12-20T00:17:59.177Z,7.20
2018-12-20T00:20:29.808Z,7.20
2018-12-20T00:23:00.509Z,7.20
2018-12-20T00:25:31.056Z,7.20
2018-12-20T00:28:01.613Z,7.20
2018-12-20T00:30:32.386Z,7.20
2018-12-20T00:33:02.932Z,7.20
2018-12-20T00:35:33.474Z,7.20
2018-12-20T00:38:04.117Z,7.20
2018-12-20T00:40:34.712Z,7.20
2018-12-20T00:43:05.424Z,7.20
2018-12-20T00:45:36.946Z,7.10
2018-12-20T00:48:07.538Z,7.20
2018-12-20T00:50:38.062Z,7.10
2018-12-20T00:53:08.635Z,7.10
2018-12-20T00:55:39.121Z,7.10
2018-12-20T00:58:09.693Z,7.10
2018-12-20T01:00:41.936Z,7.10
2018-12-20T01:03:12.546Z,7.00
2018-12-20T01:05:43.195Z,7.00
2018-12-20T01:08:13.923Z,7.00
2018-12-20T01:10:44.455Z,7.00
2018-12-20T01:13:15.355Z,7.00
2018-12-20T01:15:45.847Z,7.00
2018-12-20T01:18:16.338Z,7.00
2018-12-20T01:20:46.984Z,7.00
2018-12-20T01:23:17.537Z,7.00
2018-12-20T01:25:47.996Z,7.00
2018-12-20T01:28:18.557Z,7.00
2018-12-20T01:30:49.183Z,6.90
2018-12-20T01:33:19.895Z,6.90
2018-12-20T01:35:50.496Z,6.90
2018-12-20T01:38:20.926Z,6.90
2018-12-20T01:40:51.461Z,6.90
2018-12-20T01:43:22.036Z,6.90
2018-12-20T01:45:52.481Z,6.80
2018-12-20T01:48:22.993Z,6.80
2018-12-20T01:50:53.437Z,6.80
2018-12-20T01:53:24.134Z,6.80
2018-12-20T01:55:54.606Z,6.70
2018-12-20T01:58:25.051Z,6.80
2018-12-20T02:00:55.830Z,6.70
2018-12-20T02:03:26.926Z,6.70
2018-12-20T02:05:57.426Z,6.70
2018-12-20T02:08:27.874Z,6.70
2018-12-20T02:10:58.629Z,6.70
2018-12-20T02:13:51.070Z,6.70
2018-12-20T02:16:21.617Z,6.70
2018-12-20T02:18:52.208Z,6.70
2018-12-20T02:21:22.812Z,6.70
2018-12-20T02:23:53.329Z,6.70
2018-12-20T02:26:24.031Z,6.70
2018-12-20T02:28:54.543Z,6.70
2018-12-20T02:31:25.160Z,6.70
2018-12-20T02:33:55.930Z,6.70
2018-12-20T02:36:26.622Z,6.70
2018-12-20T02:38:57.154Z,6.70
2018-12-20T02:41:27.815Z,6.70
2018-12-20T02:43:58.343Z,6.70
2018-12-20T02:46:28.863Z,6.70
2018-12-20T02:48:59.376Z,6.70
2018-12-20T02:51:29.977Z,6.70
2018-12-20T02:54:00.615Z,6.70
2018-12-20T02:56:31.073Z,6.70
2018-12-20T02:59:01.715Z,6.70
2018-12-20T03:01:32.376Z,6.70
2018-12-20T03:04:03.061Z,6.70
2018-12-20T03:06:45.777Z,6.70
2018-12-20T03:09:16.591Z,6.70
2018-12-20T03:11:47.066Z,6.70
2018-12-20T03:14:17.788Z,6.60
2018-12-20T03:16:48.503Z,6.60
2018-12-20T03:19:19.288Z,6.60
2018-12-20T03:21:49.893Z,6.60
2018-12-20T03:24:20.412Z,6.60
2018-12-20T03:26:50.992Z,6.60
2018-12-20T03:29:21.663Z,6.60
2018-12-20T03:31:52.355Z,6.60
2018-12-20T03:34:22.982Z,6.60
2018-12-20T03:37:02.915Z,6.60
2018-12-20T03:39:33.551Z,6.60
2018-12-20T03:42:04.223Z,6.70
2018-12-20T03:44:34.958Z,6.70
2018-12-20T03:47:05.929Z,6.70
2018-12-20T03:49:36.547Z,6.70
2018-12-20T03:52:07.486Z,6.80
2018-12-20T03:54:38.108Z,6.80
2018-12-20T03:57:08.552Z,6.80
2018-12-20T03:59:39.299Z,6.80
2018-12-20T04:02:10.043Z,6.80
2018-12-20T04:04:40.834Z,6.80
2018-12-20T04:07:11.359Z,6.90
2018-12-20T04:09:42.218Z,6.90
2018-12-20T04:12:12.930Z,6.90
2018-12-20T04:14:43.692Z,6.90
2018-12-20T04:17:15.048Z,6.80
2018-12-20T04:19:45.529Z,6.90
2018-12-20T04:22:16.017Z,6.90
2018-12-20T04:24:46.722Z,6.90
2018-12-20T04:27:17.337Z,6.90
2018-12-20T04:29:48.085Z,6.90
2018-12-20T04:32:18.718Z,6.90
2018-12-20T04:34:49.589Z,7.00
2018-12-20T04:37:20.280Z,7.00
2018-12-20T04:39:51.116Z,7.00
2018-12-20T04:42:33.770Z,7.00
2018-12-20T04:45:04.684Z,7.00
2018-12-20T04:47:35.614Z,7.00
2018-12-20T04:50:06.949Z,7.00
2018-12-20T04:52:37.492Z,7.00
2018-12-20T04:55:08.204Z,7.00
2018-12-20T04:57:39.006Z,7.00
2018-12-20T05:00:12.335Z,7.00
2018-12-20T05:02:43.360Z,7.00
2018-12-20T05:05:14.194Z,7.10
2018-12-20T05:07:45.055Z,7.10
2018-12-20T05:10:15.861Z,7.10
2018-12-20T05:12:46.706Z,7.10
2018-12-20T05:15:17.411Z,7.10
2018-12-20T05:17:48.018Z,7.10
2018-12-20T05:20:18.942Z,7.10
2018-12-20T05:22:49.606Z,7.10
2018-12-20T05:25:30.588Z,7.20
2018-12-20T05:28:11.553Z,7.20
2018-12-20T05:34:51.292Z,7.20
2018-12-20T05:37:21.871Z,7.20
2018-12-20T05:39:53.131Z,7.20
2018-12-20T05:42:25.024Z,7.20
2018-12-20T05:44:55.486Z,7.20
2018-12-20T05:47:26.189Z,7.30
2018-12-20T05:49:56.815Z,7.20
2018-12-20T05:52:27.479Z,7.20
2018-12-20T05:55:29.545Z,7.30
2018-12-20T05:58:09.236Z,7.30
2018-12-20T06:00:54.664Z,7.30
2018-12-20T06:03:25.562Z,7.30
2018-12-20T06:05:57.690Z,7.30
2018-12-20T06:08:35.557Z,7.30
2018-12-20T06:11:32.789Z,7.30
2018-12-20T06:14:53.808Z,7.30
2018-12-20T06:17:55.653Z,7.30
2018-12-20T06:26:57.465Z,7.30
2018-12-20T06:29:43.025Z,7.30
2018-12-20T06:50:40.175Z,7.30
2018-12-20T06:53:39.994Z,7.30
2018-12-20T07:10:47.046Z,7.30
2018-12-20T07:20:19.967Z,7.30
2018-12-20T07:32:35.905Z,7.30
2018-12-20T07:35:14.976Z,7.30
2018-12-20T07:38:39.309Z,7.30
2018-12-20T08:01:18.007Z,7.30
2018-12-20T08:03:56.345Z,7.30
2018-12-20T08:12:55.380Z,7.30
2018-12-20T08:15:27.016Z,7.30
2018-12-20T08:18:00.505Z,7.30
2018-12-20T08:20:51.485Z,7.30
2018-12-20T08:26:02.680Z,7.30
2018-12-20T08:28:37.966Z,7.30
2018-12-20T08:31:16.231Z,7.30
2018-12-20T08:33:59.390Z,7.30
2018-12-20T08:36:32.186Z,7.30
2018-12-20T08:39:11.406Z,7.30
2018-12-20T08:49:02.084Z,7.30
2018-12-20T09:01:43.100Z,7.40
2018-12-20T09:17:20.175Z,7.40
2018-12-20T10:02:30.675Z,7.70
2018-12-20T10:05:22.220Z,7.80
2018-12-20T10:08:10.803Z,7.80
2018-12-20T10:32:50.137Z,8.20
2018-12-20T10:35:20.914Z,8.20
2018-12-20T10:37:51.666Z,8.30
2018-12-20T10:40:22.486Z,8.30
2018-12-20T10:45:29.178Z,8.30
2018-12-20T10:47:59.975Z,8.40
2018-12-20T10:50:30.714Z,8.40
2018-12-20T10:56:01.602Z,8.40
2018-12-20T10:58:32.342Z,8.40
2018-12-20T11:03:11.891Z,8.40
2018-12-20T11:05:47.587Z,8.40
2018-12-20T11:08:27.318Z,8.40
2018-12-20T11:11:06.523Z,8.40
2018-12-20T11:13:37.255Z,8.40
2018-12-20T11:16:08.052Z,8.40
2018-12-20T11:18:39.069Z,8.40
2018-12-20T11:21:10.014Z,8.40
2018-12-20T11:23:40.906Z,8.40
2018-12-20T11:26:11.316Z,8.40
2018-12-20T11:28:42.635Z,8.40
2018-12-20T11:31:13.517Z,8.50
2018-12-20T11:33:44.198Z,8.50
2018-12-20T11:36:14.877Z,8.50
2018-12-20T11:38:45.530Z,8.50
2018-12-20T11:41:16.075Z,8.50
2018-12-20T11:43:46.718Z,8.50
2018-12-20T11:46:17.440Z,8.50
2018-12-20T11:48:48.387Z,8.60
2018-12-20T11:51:19.292Z,8.60
2018-12-20T11:53:50.124Z,8.60
2018-12-20T11:56:20.939Z,8.60
2018-12-20T11:58:51.751Z,8.60
2018-12-20T12:01:22.557Z,8.60
2018-12-20T12:03:57.601Z,8.60
2018-12-20T12:19:48.820Z,8.60
2018-12-20T12:22:19.652Z,8.60
2018-12-20T12:24:50.428Z,8.60
2018-12-20T12:27:21.501Z,8.60
2018-12-20T12:29:52.786Z,8.60
2018-12-20T12:32:23.702Z,8.60
2018-12-20T12:34:54.572Z,8.60
2018-12-20T12:37:25.438Z,8.60
2018-12-20T12:39:56.498Z,8.60
2018-12-20T12:42:27.198Z,8.70
2018-12-20T12:44:58.251Z,8.70
2018-12-20T12:47:34.133Z,8.70
2018-12-20T12:50:05.284Z,8.70
2018-12-20T12:52:36.163Z,8.70
2018-12-20T12:55:07.443Z,8.70
2018-12-20T12:57:39.174Z,8.70
2018-12-20T13:00:13.154Z,8.70
2018-12-20T13:02:44.090Z,8.70
2018-12-20T13:05:14.770Z,8.70
2018-12-20T13:07:45.763Z,8.70
2018-12-20T13:10:16.795Z,8.70
2018-12-20T13:12:47.678Z,8.70
2018-12-20T13:15:18.678Z,8.70
2018-12-20T13:17:49.644Z,8.70
2018-12-20T13:20:20.854Z,8.70
2018-12-20T13:22:51.736Z,8.80
2018-12-20T13:25:22.434Z,8.80
2018-12-20T13:27:53.366Z,8.70
2018-12-20T13:30:24.238Z,8.70
2018-12-20T13:32:55.127Z,8.80
2018-12-20T13:35:26.126Z,8.80
2018-12-20T13:37:56.998Z,8.80
2018-12-20T13:40:27.891Z,8.80
2018-12-20T13:42:59.180Z,8.80
2018-12-20T13:45:32.051Z,8.80
2018-12-20T13:48:02.517Z,8.80
2018-12-20T13:50:37.318Z,8.80
2018-12-20T13:53:13.549Z,8.80
2018-12-20T13:55:46.132Z,8.80
2018-12-20T13:58:16.943Z,8.80
2018-12-20T14:00:51.678Z,8.70
2018-12-20T14:03:22.378Z,8.70
2018-12-20T14:05:56.443Z,8.70
2018-12-20T14:08:33.046Z,8.70
2018-12-20T14:11:11.882Z,8.70
2018-12-20T14:13:42.593Z,8.70
2018-12-20T14:16:13.271Z,8.70
2018-12-20T14:18:44.074Z,8.70
2018-12-20T14:21:14.635Z,8.70
2018-12-20T14:23:50.926Z,8.70
2018-12-20T14:26:45.560Z,8.60
2018-12-20T14:29:22.680Z,8.60
2018-12-20T14:31:53.901Z,8.60
2018-12-20T14:34:25.401Z,8.60
2018-12-20T14:36:57.515Z,8.60
2018-12-20T14:39:28.336Z,8.60
2018-12-20T14:42:05.970Z,8.60
2018-12-20T14:44:43.402Z,8.60
2018-12-20T14:47:14.343Z,8.60
2018-12-20T14:49:47.181Z,8.50
2018-12-20T14:52:17.879Z,8.50
2018-12-20T14:54:48.597Z,8.50
2018-12-20T14:57:27.820Z,8.50
2018-12-20T15:00:01.075Z,8.50
2018-12-20T15:02:44.877Z,8.50
2018-12-20T15:39:42.817Z,8.20
2018-12-20T15:42:13.700Z,8.20
2018-12-20T15:44:51.608Z,8.20
2018-12-20T15:47:22.280Z,8.20
2018-12-20T15:49:53.111Z,8.20
2018-12-20T15:52:23.811Z,8.20
2018-12-20T15:54:54.497Z,8.20
2018-12-20T15:57:25.181Z,8.10
2018-12-20T15:59:55.907Z,8.20
2018-12-20T16:05:27.070Z,8.20
2018-12-20T16:11:09.557Z,8.20
2018-12-20T16:13:45.918Z,8.10
2018-12-20T16:16:22.465Z,8.10
2018-12-20T16:18:53.631Z,8.10
2018-12-20T16:21:24.666Z,8.10
2018-12-20T16:23:55.776Z,8.10
2018-12-20T16:26:26.647Z,8.00
2018-12-20T16:28:58.640Z,8.00
2018-12-20T16:31:29.277Z,8.00
2018-12-20T16:34:00.094Z,8.00
2018-12-20T16:36:30.937Z,8.00
2018-12-20T16:39:01.719Z,8.00
2018-12-20T16:41:32.512Z,8.00
2018-12-20T16:44:03.100Z,8.00
2018-12-20T16:46:33.694Z,8.00
2018-12-20T16:49:13.374Z,8.00
2018-12-20T16:51:37.822Z,8.00
2018-12-20T16:54:08.366Z,8.00
2018-12-20T16:56:38.922Z,8.00
2018-12-20T16:59:09.537Z,8.00
2018-12-20T17:01:40.256Z,8.00
2018-12-20T17:04:10.875Z,8.00
2018-12-20T17:06:41.798Z,7.90
2018-12-20T17:09:12.873Z,7.90
2018-12-20T17:11:43.696Z,7.90
2018-12-20T17:14:14.507Z,7.90
2018-12-20T17:16:45.479Z,7.90
2018-12-20T17:19:22.049Z,7.90
2018-12-20T17:21:49.615Z,7.90
2018-12-20T17:24:20.551Z,7.90
2018-12-20T17:26:52.405Z,7.90
2018-12-20T17:29:23.455Z,7.90
2018-12-20T17:31:54.542Z,7.90
2018-12-20T17:34:26.476Z,7.90
2018-12-20T17:37:13.250Z,7.90
2018-12-20T17:39:48.911Z,7.90
2018-12-20T17:42:20.352Z,7.90
2018-12-20T17:44:51.889Z,7.90
2018-12-20T17:47:23.328Z,7.90
2018-12-20T17:49:54.551Z,7.90
2018-12-20T17:52:26.011Z,7.90
2018-12-20T17:54:57.649Z,7.90
2018-12-20T17:57:29.016Z,7.90
2018-12-20T18:00:00.226Z,7.90
2018-12-20T18:02:31.868Z,7.90
2018-12-20T18:05:07.055Z,7.90
2018-12-20T18:07:37.959Z,7.90
2018-12-20T18:10:13.047Z,7.80
2018-12-20T18:12:45.137Z,7.80
2018-12-20T18:15:16.934Z,7.90
2018-12-20T18:17:48.627Z,7.90
2018-12-20T18:20:20.332Z,7.90
2018-12-20T18:22:54.900Z,7.90
2018-12-20T18:25:27.735Z,7.90
2018-12-20T18:28:00.999Z,7.90
2018-12-20T18:31:01.593Z,7.90
2018-12-20T18:33:35.300Z,7.90
2018-12-20T18:36:07.202Z,7.90
2018-12-20T18:38:39.505Z,7.90
2018-12-20T18:41:11.404Z,7.90
2018-12-20T18:43:44.525Z,7.90
2018-12-20T18:46:16.188Z,7.80
2018-12-20T18:48:48.014Z,7.90
2018-12-20T18:51:19.907Z,7.80
2018-12-20T18:53:53.017Z,7.80
2018-12-20T18:56:27.288Z,7.80
2018-12-20T18:58:59.041Z,7.80
2018-12-20T19:01:30.877Z,7.80
2018-12-20T19:04:02.568Z,7.80
2018-12-20T19:06:34.079Z,7.80
2018-12-20T19:09:07.737Z,7.80
2018-12-20T19:11:39.140Z,7.80
2018-12-20T19:14:10.244Z,7.80
2018-12-20T19:16:42.613Z,7.80
2018-12-20T19:19:15.595Z,7.80
2018-12-20T19:21:49.374Z,7.80
2018-12-20T19:24:21.530Z,7.80
2018-12-20T19:26:56.292Z,7.80
2018-12-20T19:29:28.857Z,7.80
2018-12-20T19:32:16.171Z,7.80
2018-12-20T19:34:50.439Z,7.80
2018-12-20T19:37:25.649Z,7.80
2018-12-20T19:40:02.771Z,7.80
2018-12-20T19:42:41.445Z,7.80
2018-12-20T19:45:20.646Z,7.80
2018-12-20T19:47:54.687Z,7.80
2018-12-20T19:50:49.430Z,7.80
2018-12-20T19:53:26.487Z,7.80
2018-12-20T19:56:04.765Z,7.80
2018-12-20T20:01:41.090Z,7.80
2018-12-20T20:04:21.236Z,7.80
2018-12-20T20:07:03.265Z,7.80
2018-12-20T20:09:48.492Z,7.80
2018-12-20T20:12:22.256Z,7.80
2018-12-20T20:14:54.526Z,7.80
2018-12-20T20:17:27.392Z,7.80
2018-12-20T20:20:00.149Z,7.80
2018-12-20T20:22:33.750Z,7.80
2018-12-20T20:25:47.804Z,7.80
2018-12-20T20:28:19.992Z,7.90
2018-12-20T20:30:52.040Z,7.90
2018-12-20T20:33:37.681Z,7.90
2018-12-20T20:36:11.737Z,7.90
2018-12-20T20:38:52.670Z,7.90
2018-12-20T20:41:29.323Z,7.90
2018-12-20T20:44:01.457Z,7.90
2018-12-20T20:46:33.263Z,7.90
2018-12-20T20:49:05.433Z,7.90
2018-12-20T20:51:37.448Z,7.90
2018-12-20T20:54:09.321Z,7.90
2018-12-20T20:56:41.260Z,7.90
2018-12-20T20:59:14.986Z,7.90
2018-12-20T21:01:46.927Z,7.90
2018-12-20T21:04:18.650Z,8.00
2018-12-20T21:06:50.533Z,8.00
2018-12-20T21:09:23.323Z,8.00
2018-12-20T21:11:57.409Z,8.00
2018-12-20T21:14:29.172Z,8.00
2018-12-20T21:17:02.079Z,8.00
2018-12-20T21:19:34.006Z,8.00
2018-12-20T21:22:06.473Z,8.00
2018-12-20T21:24:38.318Z,8.00
2018-12-20T21:27:11.456Z,8.00
2018-12-20T21:29:44.823Z,8.00
2018-12-20T21:32:16.921Z,8.10
2018-12-20T21:34:52.251Z,8.10
2018-12-20T21:37:23.899Z,8.00
2018-12-20T21:39:55.635Z,8.10
2018-12-20T21:42:28.430Z,8.10
2018-12-20T21:45:00.160Z,8.10
2018-12-20T21:47:31.991Z,8.10
2018-12-20T21:50:03.931Z,8.10
2018-12-20T21:52:38.798Z,8.10
2018-12-20T21:55:12.562Z,8.10
2018-12-20T21:57:45.806Z,8.10
2018-12-20T22:00:19.041Z,8.10
2018-12-20T22:02:51.748Z,8.10
2018-12-20T22:05:23.593Z,8.10
2018-12-20T22:07:55.324Z,8.10
2018-12-20T22:10:26.887Z,8.10
2018-12-20T22:12:58.886Z,8.10
2018-12-20T22:15:30.655Z,8.10
2018-12-20T22:18:03.128Z,8.10
2018-12-20T22:20:35.625Z,8.10
2018-12-20T22:23:07.024Z,8.10
2018-12-20T22:25:38.406Z,8.10
2018-12-20T22:28:11.390Z,8.10
2018-12-20T22:30:42.815Z,8.20
2018-12-20T22:33:16.646Z,8.20
2018-12-20T22:35:48.381Z,8.20
2018-12-20T22:38:19.698Z,8.20
2018-12-20T22:40:50.803Z,8.20
2018-12-20T22:43:58.003Z,8.20
2018-12-20T22:46:30.721Z,8.20
2018-12-20T22:49:04.937Z,8.10
